CSL Niagara — VCGJ — position and weather

sailwx.info

Track history (hours):
 
Tides and Currents Weather Stations Pressure Air Temp Water Temp Dewpoint Dewpoint Depression Visibility Wind Speed Wind Dir Waves Ship Positions

CSL Niagara

ex J. W. McGiffin

Last reported at 2015-Jan-27 21:33 UTC. Time now 2015-Jan-30 21:37 UTC.
Position N 45°46' W 084°04'.

Length 225 m; draft 7.9 m.

Type: Cargo ship. MMSI: 316029000.

Date/timePositionNaut miles runAvg speedWind from/ knotsBaromVisibWave heightAir tempDewpointWater temp
2015-Jan-27 21:33N 45°46' W 084°04'1312.6
2015-Jan-27 20:33N 45°50' W 084°21'1111.5
2015-Jan-27 19:33N 45°50' W 084°38'5 4.6
2015-Jan-27 18:33N 45°49' W 084°44'1110.7
2015-Jan-27 17:33N 45°51' W 084°59'9 8.9
2015-Jan-27 16:33N 45°52' W 085°12'10 9.9
2015-Jan-27 15:33N 45°53' W 085°26'9 8.8
2015-Jan-27 14:33N 45°52' W 085°38'9 9.5
2015-Jan-27 13:33N 45°47' W 085°50'8 8.1
2015-Jan-27 12:33N 45°43' W 085°60'8 8.5
2015-Jan-27 11:33N 45°35' W 086°04'9 8.5
2015-Jan-27 10:33N 45°26' W 086°07'8 8.4
2015-Jan-27 09:33N 45°18' W 086°10'8 8.4
2015-Jan-27 08:33N 45°10' W 086°13'9 8.5
2015-Jan-27 07:33N 45°02' W 086°16'  
2015-Jan-25 01:07N 44°60' W 086°23'812.4
2015-Jan-25 00:28N 45°08' W 086°20'1112.5
2015-Jan-24 23:33N 45°19' W 086°16'1312.6
2015-Jan-24 22:33N 45°31' W 086°11'1212.0
2015-Jan-24 21:33N 45°42' W 086°04'1212.2
2015-Jan-24 20:33N 45°48' W 085°49'1211.8
2015-Jan-24 19:33N 45°53' W 085°34'5 4.9
2015-Jan-24 18:33N 45°53' W 085°27'6 6.3
2015-Jan-24 17:33N 45°53' W 085°18'2 2.3
2015-Jan-24 16:33N 45°53' W 085°14'1 1.2
2015-Jan-24 15:33N 45°53' W 085°13'3 3.1
2015-Jan-24 14:33N 45°53' W 085°08'0 0.1
2015-Jan-24 13:33N 45°53' W 085°08'0 0.0
2015-Jan-24 12:33N 45°53' W 085°08'0 0.0
2015-Jan-24 11:33N 45°53' W 085°08'0 0.0
2015-Jan-24 10:33N 45°53' W 085°08'0 0.0
2015-Jan-24 09:33N 45°53' W 085°08'0 0.0
2015-Jan-24 08:33N 45°53' W 085°08'0 0.0
2015-Jan-24 07:33N 45°53' W 085°08'0 0.0
2015-Jan-24 06:33N 45°53' W 085°08'0 0.0
2015-Jan-24 05:33N 45°53' W 085°08'0 0.0
2015-Jan-24 04:33N 45°53' W 085°08'0 0.0
2015-Jan-24 03:33N 45°53' W 085°08'0 0.0
2015-Jan-24 02:33N 45°53' W 085°08'0 0.0
2015-Jan-24 01:33N 45°53' W 085°08'0 0.0
2015-Jan-24 00:33N 45°53' W 085°08'0 0.0
2015-Jan-23 23:33N 45°53' W 085°08'0 0.0
2015-Jan-23 22:33N 45°53' W 085°08'0 0.0
2015-Jan-23 21:33N 45°53' W 085°08'1 0.6
2015-Jan-23 20:33N 45°53' W 085°08'0 0.0
2015-Jan-23 19:33N 45°53' W 085°08'0 0.0
2015-Jan-23 18:33N 45°53' W 085°08'0 0.0
2015-Jan-23 17:33N 45°53' W 085°08'0 0.0
2015-Jan-23 16:33N 45°53' W 085°08'0 0.0
2015-Jan-23 15:33N 45°53' W 085°08'0 0.0
2015-Jan-23 14:33N 45°53' W 085°08'0 0.0
2015-Jan-23 13:33N 45°53' W 085°08'0 0.0
2015-Jan-23 12:33N 45°53' W 085°08'0 0.0
2015-Jan-23 11:33N 45°53' W 085°08'0 0.0
2015-Jan-23 10:33N 45°53' W 085°08'0 0.3
2015-Jan-23 09:33N 45°52' W 085°08'0 0.3
2015-Jan-23 08:33N 45°52' W 085°08'0 0.0
2015-Jan-23 07:33N 45°52' W 085°08'0 0.0
2015-Jan-23 06:33N 45°52' W 085°08'0 0.0
2015-Jan-23 05:33N 45°52' W 085°08'0 0.0
2015-Jan-23 04:33N 45°52' W 085°08'0 0.0
2015-Jan-23 03:33N 45°52' W 085°08'0 0.0
2015-Jan-23 02:33N 45°52' W 085°08'0 0.0
2015-Jan-23 01:33N 45°52' W 085°08'0 0.0
2015-Jan-23 00:33N 45°52' W 085°08'0 0.0
2015-Jan-22 23:33N 45°52' W 085°08'2 2.1
2015-Jan-22 22:33N 45°52' W 085°05'1110.6
2015-Jan-22 21:33N 45°50' W 084°50'1010.1
2015-Jan-22 20:33N 45°51' W 084°36'7 7.0
2015-Jan-22 19:33N 45°51' W 084°26'0 0.5
2015-Jan-22 18:33N 45°51' W 084°27'3 3.0
2015-Jan-22 17:33N 45°51' W 084°22'1010.3
2015-Jan-22 16:33N 45°50' W 084°08'  
2015-Jan-18 07:33N 42°29' W 080°06'8 7.8
2015-Jan-18 06:33N 42°36' W 080°01'10 9.8
2015-Jan-18 05:33N 42°45' W 080°05'2 1.7
2015-Jan-18 04:33N 42°47' W 080°05'0 0.0
2015-Jan-18 03:33N 42°47' W 080°05'0 0.0
2015-Jan-18 02:27N 42°47' W 080°05'0 0.0
2015-Jan-18 01:33N 42°47' W 080°05'0 0.0
2015-Jan-18 00:33N 42°47' W 080°05'0 0.0
2015-Jan-17 23:24N 42°47' W 080°05'0 0.0
2015-Jan-17 22:33N 42°47' W 080°05'  
Track history (hours):
 
Tides and Currents Weather Stations Pressure Air Temp Water Temp Dewpoint Dewpoint Depression Visibility Wind Speed Wind Dir Waves Ship Positions

CSL Niagara

ex J. W. McGiffin

Last reported at 2015-Jan-27 21:33 UTC. Time now 2015-Jan-30 21:37 UTC.
Position N 45°46' W 084°04'.

Length 225 m; draft 7.9 m.

Type: Cargo ship. MMSI: 316029000.

Date/timePositionNaut miles runAvg speedWind from/ knotsBaromVisibWave heightAir tempDewpointWater temp
2015-Jan-27 21:33N 45°46' W 084°04'1312.6
2015-Jan-27 20:33N 45°50' W 084°21'1111.5
2015-Jan-27 19:33N 45°50' W 084°38'5 4.6
2015-Jan-27 18:33N 45°49' W 084°44'1110.7
2015-Jan-27 17:33N 45°51' W 084°59'9 8.9
2015-Jan-27 16:33N 45°52' W 085°12'10 9.9
2015-Jan-27 15:33N 45°53' W 085°26'9 8.8
2015-Jan-27 14:33N 45°52' W 085°38'9 9.5
2015-Jan-27 13:33N 45°47' W 085°50'8 8.1
2015-Jan-27 12:33N 45°43' W 085°60'8 8.5
2015-Jan-27 11:33N 45°35' W 086°04'9 8.5
2015-Jan-27 10:33N 45°26' W 086°07'8 8.4
2015-Jan-27 09:33N 45°18' W 086°10'8 8.4
2015-Jan-27 08:33N 45°10' W 086°13'9 8.5
2015-Jan-27 07:33N 45°02' W 086°16'  
2015-Jan-25 01:07N 44°60' W 086°23'812.4
2015-Jan-25 00:28N 45°08' W 086°20'1112.5
2015-Jan-24 23:33N 45°19' W 086°16'1312.6
2015-Jan-24 22:33N 45°31' W 086°11'1212.0
2015-Jan-24 21:33N 45°42' W 086°04'1212.2
2015-Jan-24 20:33N 45°48' W 085°49'1211.8
2015-Jan-24 19:33N 45°53' W 085°34'5 4.9
2015-Jan-24 18:33N 45°53' W 085°27'6 6.3
2015-Jan-24 17:33N 45°53' W 085°18'2 2.3
2015-Jan-24 16:33N 45°53' W 085°14'1 1.2
2015-Jan-24 15:33N 45°53' W 085°13'3 3.1
2015-Jan-24 14:33N 45°53' W 085°08'0 0.1
2015-Jan-24 13:33N 45°53' W 085°08'0 0.0
2015-Jan-24 12:33N 45°53' W 085°08'0 0.0
2015-Jan-24 11:33N 45°53' W 085°08'0 0.0
2015-Jan-24 10:33N 45°53' W 085°08'0 0.0
2015-Jan-24 09:33N 45°53' W 085°08'0 0.0
2015-Jan-24 08:33N 45°53' W 085°08'0 0.0
2015-Jan-24 07:33N 45°53' W 085°08'0 0.0
2015-Jan-24 06:33N 45°53' W 085°08'0 0.0
2015-Jan-24 05:33N 45°53' W 085°08'0 0.0
2015-Jan-24 04:33N 45°53' W 085°08'0 0.0
2015-Jan-24 03:33N 45°53' W 085°08'0 0.0
2015-Jan-24 02:33N 45°53' W 085°08'0 0.0
2015-Jan-24 01:33N 45°53' W 085°08'0 0.0
2015-Jan-24 00:33N 45°53' W 085°08'0 0.0
2015-Jan-23 23:33N 45°53' W 085°08'0 0.0
2015-Jan-23 22:33N 45°53' W 085°08'0 0.0
2015-Jan-23 21:33N 45°53' W 085°08'1 0.6
2015-Jan-23 20:33N 45°53' W 085°08'0 0.0
2015-Jan-23 19:33N 45°53' W 085°08'0 0.0
2015-Jan-23 18:33N 45°53' W 085°08'0 0.0
2015-Jan-23 17:33N 45°53' W 085°08'0 0.0
2015-Jan-23 16:33N 45°53' W 085°08'0 0.0
2015-Jan-23 15:33N 45°53' W 085°08'0 0.0
2015-Jan-23 14:33N 45°53' W 085°08'0 0.0
2015-Jan-23 13:33N 45°53' W 085°08'0 0.0
2015-Jan-23 12:33N 45°53' W 085°08'0 0.0
2015-Jan-23 11:33N 45°53' W 085°08'0 0.0
2015-Jan-23 10:33N 45°53' W 085°08'0 0.3
2015-Jan-23 09:33N 45°52' W 085°08'0 0.3
2015-Jan-23 08:33N 45°52' W 085°08'0 0.0
2015-Jan-23 07:33N 45°52' W 085°08'0 0.0
2015-Jan-23 06:33N 45°52' W 085°08'0 0.0
2015-Jan-23 05:33N 45°52' W 085°08'0 0.0
2015-Jan-23 04:33N 45°52' W 085°08'0 0.0
2015-Jan-23 03:33N 45°52' W 085°08'0 0.0
2015-Jan-23 02:33N 45°52' W 085°08'0 0.0
2015-Jan-23 01:33N 45°52' W 085°08'0 0.0
2015-Jan-23 00:33N 45°52' W 085°08'0 0.0
2015-Jan-22 23:33N 45°52' W 085°08'2 2.1
2015-Jan-22 22:33N 45°52' W 085°05'1110.6
2015-Jan-22 21:33N 45°50' W 084°50'1010.1
2015-Jan-22 20:33N 45°51' W 084°36'7 7.0
2015-Jan-22 19:33N 45°51' W 084°26'0 0.5
2015-Jan-22 18:33N 45°51' W 084°27'3 3.0
2015-Jan-22 17:33N 45°51' W 084°22'1010.3
2015-Jan-22 16:33N 45°50' W 084°08'  
2015-Jan-18 07:33N 42°29' W 080°06'8 7.8
2015-Jan-18 06:33N 42°36' W 080°01'10 9.8
2015-Jan-18 05:33N 42°45' W 080°05'2 1.7
2015-Jan-18 04:33N 42°47' W 080°05'0 0.0
2015-Jan-18 03:33N 42°47' W 080°05'0 0.0
2015-Jan-18 02:27N 42°47' W 080°05'0 0.0
2015-Jan-18 01:33N 42°47' W 080°05'0 0.0
2015-Jan-18 00:33N 42°47' W 080°05'0 0.0
2015-Jan-17 23:24N 42°47' W 080°05'0 0.0
2015-Jan-17 22:33N 42°47' W 080°05'  

Dump ship's entire track history